EEN weather

Dillant Hopkins Airport
Keene, New Hampshire, United States

Public forecast

Using degrees Fahrenheit for public forecast. Weather courtesy of forecast.io.

Current aviation weather report (METAR) for Dillant Hopkins Airport

Retrieved 2020/02/16 20:56 UTC (29 minutes ago):

KEEN 162056Z AUTO 21004KT 10SM OVC038 03/M06 A3003 RMK AO2 SLP180 T00281056 56008

Closest aviation forecast (TAF) to Dillant Hopkins Airport

Closest forecast is Manchester-Boston Regional Airport, 36.8 nm (68.1 km) E. Retrieved 2020/02/16 18:22 UTC (3 hours ago):

TAF KMHT 161720Z 1618/1718 19007KT P6SM FEW070 OVC090 FM170000 26002KT P6SM BKN250 FM171500 31009G16KT P6SM SKC